sensor_id;sensor_type;location;lat;lon;timestamp;P1;durP1;ratioP1;P2;durP2;ratioP2
25331;SDS011;13284;52.748;13.452;2024-02-21T00:01:35;19.90;;;8.87;;
25331;SDS011;13284;52.748;13.452;2024-02-21T00:04:00;11.40;;;7.60;;
25331;SDS011;13284;52.748;13.452;2024-02-21T00:06:26;12.83;;;8.10;;
25331;SDS011;13284;52.748;13.452;2024-02-21T00:08:51;17.30;;;7.70;;
25331;SDS011;13284;52.748;13.452;2024-02-21T00:11:17;13.23;;;8.00;;
25331;SDS011;13284;52.748;13.452;2024-02-21T00:13:42;14.40;;;6.93;;
25331;SDS011;13284;52.748;13.452;2024-02-21T00:16:07;17.47;;;7.97;;
25331;SDS011;13284;52.748;13.452;2024-02-21T00:18:33;10.63;;;7.80;;
25331;SDS011;13284;52.748;13.452;2024-02-21T00:20:58;14.73;;;8.90;;
25331;SDS011;13284;52.748;13.452;2024-02-21T00:23:26;12.50;;;8.47;;
25331;SDS011;13284;52.748;13.452;2024-02-21T00:25:52;11.60;;;7.37;;
25331;SDS011;13284;52.748;13.452;2024-02-21T00:28:17;18.53;;;7.53;;
25331;SDS011;13284;52.748;13.452;2024-02-21T00:30:43;22.17;;;9.20;;
25331;SDS011;13284;52.748;13.452;2024-02-21T00:33:09;10.60;;;8.10;;
25331;SDS011;13284;52.748;13.452;2024-02-21T00:35:34;12.50;;;7.63;;
25331;SDS011;13284;52.748;13.452;2024-02-21T00:38:00;20.93;;;8.60;;
25331;SDS011;13284;52.748;13.452;2024-02-21T00:40:25;14.47;;;7.33;;
25331;SDS011;13284;52.748;13.452;2024-02-21T00:42:51;12.00;;;7.00;;
25331;SDS011;13284;52.748;13.452;2024-02-21T00:45:16;13.30;;;6.43;;
25331;SDS011;13284;52.748;13.452;2024-02-21T00:47:42;19.83;;;7.23;;
25331;SDS011;13284;52.748;13.452;2024-02-21T00:50:07;13.10;;;7.90;;
25331;SDS011;13284;52.748;13.452;2024-02-21T00:52:34;13.30;;;6.93;;
25331;SDS011;13284;52.748;13.452;2024-02-21T00:54:59;14.40;;;8.23;;
25331;SDS011;13284;52.748;13.452;2024-02-21T00:57:25;15.60;;;7.40;;
25331;SDS011;13284;52.748;13.452;2024-02-21T00:59:51;14.93;;;7.30;;
25331;SDS011;13284;52.748;13.452;2024-02-21T01:02:17;9.80;;;6.47;;
25331;SDS011;13284;52.748;13.452;2024-02-21T01:04:42;15.60;;;6.97;;
25331;SDS011;13284;52.748;13.452;2024-02-21T01:07:07;14.93;;;6.40;;
25331;SDS011;13284;52.748;13.452;2024-02-21T01:09:33;13.63;;;6.33;;
25331;SDS011;13284;52.748;13.452;2024-02-21T01:11:58;12.80;;;6.00;;
25331;SDS011;13284;52.748;13.452;2024-02-21T01:14:24;15.93;;;5.80;;
25331;SDS011;13284;52.748;13.452;2024-02-21T01:16:49;8.70;;;5.20;;
25331;SDS011;13284;52.748;13.452;2024-02-21T01:19:15;10.20;;;5.30;;
25331;SDS011;13284;52.748;13.452;2024-02-21T01:21:40;10.03;;;4.80;;
25331;SDS011;13284;52.748;13.452;2024-02-21T01:24:06;7.97;;;5.90;;
25331;SDS011;13284;52.748;13.452;2024-02-21T01:26:31;12.83;;;6.30;;
25331;SDS011;13284;52.748;13.452;2024-02-21T01:28:57;13.70;;;5.00;;
25331;SDS011;13284;52.748;13.452;2024-02-21T01:31:22;8.40;;;3.80;;
25331;SDS011;13284;52.748;13.452;2024-02-21T01:33:47;10.47;;;5.10;;
25331;SDS011;13284;52.748;13.452;2024-02-21T01:36:13;11.23;;;5.30;;
25331;SDS011;13284;52.748;13.452;2024-02-21T01:38:38;10.33;;;6.10;;
25331;SDS011;13284;52.748;13.452;2024-02-21T01:41:04;15.73;;;6.70;;
25331;SDS011;13284;52.748;13.452;2024-02-21T01:43:29;17.90;;;6.40;;
25331;SDS011;13284;52.748;13.452;2024-02-21T01:45:55;8.37;;;4.83;;
25331;SDS011;13284;52.748;13.452;2024-02-21T01:48:22;9.30;;;5.20;;
25331;SDS011;13284;52.748;13.452;2024-02-21T01:50:49;11.07;;;4.47;;
25331;SDS011;13284;52.748;13.452;2024-02-21T01:53:18;13.73;;;5.00;;
25331;SDS011;13284;52.748;13.452;2024-02-21T01:55:52;10.30;;;5.30;;
25331;SDS011;13284;52.748;13.452;2024-02-21T01:58:18;10.50;;;5.53;;
25331;SDS011;13284;52.748;13.452;2024-02-21T02:00:45;12.53;;;5.70;;
25331;SDS011;13284;52.748;13.452;2024-02-21T02:03:12;9.13;;;3.93;;
25331;SDS011;13284;52.748;13.452;2024-02-21T02:05:44;20.73;;;6.67;;
25331;SDS011;13284;52.748;13.452;2024-02-21T02:08:10;10.73;;;5.47;;
25331;SDS011;13284;52.748;13.452;2024-02-21T02:10:36;11.10;;;5.60;;
25331;SDS011;13284;52.748;13.452;2024-02-21T02:13:02;13.43;;;4.80;;
25331;SDS011;13284;52.748;13.452;2024-02-21T02:15:36;12.87;;;5.10;;
25331;SDS011;13284;52.748;13.452;2024-02-21T02:18:03;11.20;;;4.83;;
25331;SDS011;13284;52.748;13.452;2024-02-21T02:20:29;15.20;;;5.00;;
25331;SDS011;13284;52.748;13.452;2024-02-21T02:22:54;11.60;;;4.73;;
25331;SDS011;13284;52.748;13.452;2024-02-21T02:25:20;11.40;;;4.80;;
25331;SDS011;13284;52.748;13.452;2024-02-21T02:27:45;9.47;;;4.40;;
25331;SDS011;13284;52.748;13.452;2024-02-21T02:30:11;9.80;;;3.90;;
25331;SDS011;13284;52.748;13.452;2024-02-21T02:32:37;10.00;;;4.33;;
25331;SDS011;13284;52.748;13.452;2024-02-21T02:35:02;9.93;;;4.37;;
25331;SDS011;13284;52.748;13.452;2024-02-21T02:37:28;11.83;;;4.70;;
25331;SDS011;13284;52.748;13.452;2024-02-21T02:39:53;12.07;;;4.83;;
25331;SDS011;13284;52.748;13.452;2024-02-21T02:42:19;12.80;;;5.27;;
25331;SDS011;13284;52.748;13.452;2024-02-21T02:44:44;9.10;;;4.50;;
25331;SDS011;13284;52.748;13.452;2024-02-21T02:47:10;12.20;;;5.20;;
25331;SDS011;13284;52.748;13.452;2024-02-21T02:49:35;16.10;;;5.30;;
25331;SDS011;13284;52.748;13.452;2024-02-21T02:52:01;10.33;;;5.30;;
25331;SDS011;13284;52.748;13.452;2024-02-21T02:54:26;9.73;;;4.70;;
25331;SDS011;13284;52.748;13.452;2024-02-21T02:56:52;12.67;;;4.67;;
25331;SDS011;13284;52.748;13.452;2024-02-21T02:59:18;8.23;;;4.93;;
25331;SDS011;13284;52.748;13.452;2024-02-21T03:01:43;10.23;;;4.50;;
25331;SDS011;13284;52.748;13.452;2024-02-21T03:04:09;9.00;;;4.00;;
25331;SDS011;13284;52.748;13.452;2024-02-21T03:06:34;8.70;;;5.63;;
25331;SDS011;13284;52.748;13.452;2024-02-21T03:09:00;7.73;;;4.70;;
25331;SDS011;13284;52.748;13.452;2024-02-21T03:11:25;12.80;;;5.23;;
25331;SDS011;13284;52.748;13.452;2024-02-21T03:13:54;14.70;;;4.67;;
25331;SDS011;13284;52.748;13.452;2024-02-21T03:16:21;10.50;;;4.80;;
25331;SDS011;13284;52.748;13.452;2024-02-21T03:18:47;8.77;;;4.73;;
25331;SDS011;13284;52.748;13.452;2024-02-21T03:21:13;10.57;;;5.67;;
25331;SDS011;13284;52.748;13.452;2024-02-21T03:23:38;10.10;;;5.20;;
25331;SDS011;13284;52.748;13.452;2024-02-21T03:26:04;11.73;;;5.40;;
25331;SDS011;13284;52.748;13.452;2024-02-21T03:28:29;10.73;;;4.87;;
25331;SDS011;13284;52.748;13.452;2024-02-21T03:30:55;13.73;;;6.10;;
25331;SDS011;13284;52.748;13.452;2024-02-21T03:33:20;13.27;;;5.13;;
25331;SDS011;13284;52.748;13.452;2024-02-21T03:35:47;9.77;;;4.30;;
25331;SDS011;13284;52.748;13.452;2024-02-21T03:38:13;16.90;;;6.10;;
25331;SDS011;13284;52.748;13.452;2024-02-21T03:40:38;10.20;;;5.57;;
25331;SDS011;13284;52.748;13.452;2024-02-21T03:43:04;13.03;;;5.03;;
25331;SDS011;13284;52.748;13.452;2024-02-21T03:45:29;8.50;;;6.10;;
25331;SDS011;13284;52.748;13.452;2024-02-21T03:47:55;7.13;;;4.60;;
25331;SDS011;13284;52.748;13.452;2024-02-21T03:50:20;9.27;;;6.30;;
25331;SDS011;13284;52.748;13.452;2024-02-21T03:52:46;9.10;;;4.43;;
25331;SDS011;13284;52.748;13.452;2024-02-21T03:55:11;8.87;;;5.07;;
25331;SDS011;13284;52.748;13.452;2024-02-21T03:57:37;11.83;;;6.20;;
25331;SDS011;13284;52.748;13.452;2024-02-21T04:00:03;7.67;;;4.70;;
25331;SDS011;13284;52.748;13.452;2024-02-21T04:02:30;8.80;;;5.60;;
25331;SDS011;13284;52.748;13.452;2024-02-21T04:04:56;12.70;;;6.53;;
25331;SDS011;13284;52.748;13.452;2024-02-21T04:07:21;9.93;;;5.83;;
25331;SDS011;13284;52.748;13.452;2024-02-21T04:09:47;7.33;;;4.17;;
25331;SDS011;13284;52.748;13.452;2024-02-21T04:12:12;11.80;;;5.57;;
25331;SDS011;13284;52.748;13.452;2024-02-21T04:14:37;12.20;;;4.10;;
25331;SDS011;13284;52.748;13.452;2024-02-21T04:17:04;8.83;;;4.63;;
25331;SDS011;13284;52.748;13.452;2024-02-21T04:19:30;10.40;;;6.70;;
25331;SDS011;13284;52.748;13.452;2024-02-21T04:21:56;12.10;;;7.20;;
25331;SDS011;13284;52.748;13.452;2024-02-21T04:24:21;12.90;;;6.30;;
25331;SDS011;13284;52.748;13.452;2024-02-21T04:26:47;9.60;;;5.80;;
25331;SDS011;13284;52.748;13.452;2024-02-21T04:29:12;10.10;;;6.87;;
25331;SDS011;13284;52.748;13.452;2024-02-21T04:31:37;10.30;;;6.03;;
25331;SDS011;13284;52.748;13.452;2024-02-21T04:34:03;8.83;;;6.43;;
25331;SDS011;13284;52.748;13.452;2024-02-21T04:36:31;19.33;;;5.60;;
25331;SDS011;13284;52.748;13.452;2024-02-21T04:38:56;11.73;;;6.13;;
25331;SDS011;13284;52.748;13.452;2024-02-21T04:41:22;15.00;;;6.30;;
25331;SDS011;13284;52.748;13.452;2024-02-21T04:43:47;15.43;;;7.00;;
25331;SDS011;13284;52.748;13.452;2024-02-21T04:46:13;12.70;;;6.30;;
25331;SDS011;13284;52.748;13.452;2024-02-21T04:48:38;12.07;;;6.13;;
25331;SDS011;13284;52.748;13.452;2024-02-21T04:51:04;15.00;;;6.83;;
25331;SDS011;13284;52.748;13.452;2024-02-21T04:53:29;8.93;;;4.50;;
25331;SDS011;13284;52.748;13.452;2024-02-21T04:55:55;7.90;;;5.07;;
25331;SDS011;13284;52.748;13.452;2024-02-21T04:58:20;13.37;;;6.47;;
25331;SDS011;13284;52.748;13.452;2024-02-21T05:00:46;13.13;;;5.73;;
25331;SDS011;13284;52.748;13.452;2024-02-21T05:03:11;15.30;;;7.07;;
25331;SDS011;13284;52.748;13.452;2024-02-21T05:05:37;7.63;;;5.10;;
25331;SDS011;13284;52.748;13.452;2024-02-21T05:08:03;10.53;;;5.20;;
25331;SDS011;13284;52.748;13.452;2024-02-21T05:10:28;11.00;;;4.97;;
25331;SDS011;13284;52.748;13.452;2024-02-21T05:12:54;10.40;;;5.93;;
25331;SDS011;13284;52.748;13.452;2024-02-21T05:15:19;16.00;;;6.30;;
25331;SDS011;13284;52.748;13.452;2024-02-21T05:17:45;16.70;;;8.03;;
25331;SDS011;13284;52.748;13.452;2024-02-21T05:20:10;14.13;;;6.30;;
25331;SDS011;13284;52.748;13.452;2024-02-21T05:22:36;9.20;;;5.60;;
25331;SDS011;13284;52.748;13.452;2024-02-21T05:25:01;14.17;;;6.43;;
25331;SDS011;13284;52.748;13.452;2024-02-21T05:27:27;11.47;;;6.10;;
25331;SDS011;13284;52.748;13.452;2024-02-21T05:29:53;16.23;;;6.30;;
25331;SDS011;13284;52.748;13.452;2024-02-21T05:32:19;10.30;;;5.30;;
25331;SDS011;13284;52.748;13.452;2024-02-21T05:34:44;10.20;;;6.30;;
25331;SDS011;13284;52.748;13.452;2024-02-21T05:37:13;11.77;;;5.33;;
25331;SDS011;13284;52.748;13.452;2024-02-21T05:39:38;13.03;;;6.10;;
25331;SDS011;13284;52.748;13.452;2024-02-21T05:42:04;10.90;;;6.00;;
25331;SDS011;13284;52.748;13.452;2024-02-21T05:44:29;11.73;;;6.53;;
25331;SDS011;13284;52.748;13.452;2024-02-21T05:46:55;12.90;;;6.37;;
25331;SDS011;13284;52.748;13.452;2024-02-21T05:49:20;11.30;;;5.50;;
25331;SDS011;13284;52.748;13.452;2024-02-21T05:51:46;14.50;;;6.70;;
25331;SDS011;13284;52.748;13.452;2024-02-21T05:54:12;10.60;;;5.90;;
25331;SDS011;13284;52.748;13.452;2024-02-21T05:56:37;11.40;;;4.90;;
25331;SDS011;13284;52.748;13.452;2024-02-21T05:59:03;17.37;;;6.63;;
25331;SDS011;13284;52.748;13.452;2024-02-21T06:01:28;14.60;;;6.37;;
25331;SDS011;13284;52.748;13.452;2024-02-21T06:03:53;16.80;;;6.57;;
25331;SDS011;13284;52.748;13.452;2024-02-21T06:06:19;16.67;;;7.10;;
25331;SDS011;13284;52.748;13.452;2024-02-21T06:08:46;11.43;;;5.87;;
25331;SDS011;13284;52.748;13.452;2024-02-21T06:11:12;11.63;;;7.33;;
25331;SDS011;13284;52.748;13.452;2024-02-21T06:13:38;12.70;;;6.87;;
25331;SDS011;13284;52.748;13.452;2024-02-21T06:16:05;9.93;;;5.07;;
25331;SDS011;13284;52.748;13.452;2024-02-21T06:18:31;9.63;;;6.30;;
25331;SDS011;13284;52.748;13.452;2024-02-21T06:20:57;12.03;;;7.27;;
25331;SDS011;13284;52.748;13.452;2024-02-21T06:23:22;16.33;;;6.40;;
25331;SDS011;13284;52.748;13.452;2024-02-21T06:25:48;15.43;;;6.50;;
25331;SDS011;13284;52.748;13.452;2024-02-21T06:28:13;8.47;;;5.40;;
25331;SDS011;13284;52.748;13.452;2024-02-21T06:30:39;11.07;;;6.50;;
25331;SDS011;13284;52.748;13.452;2024-02-21T06:33:05;11.43;;;7.90;;
25331;SDS011;13284;52.748;13.452;2024-02-21T06:35:32;14.83;;;6.70;;
25331;SDS011;13284;52.748;13.452;2024-02-21T06:37:58;10.70;;;6.40;;
25331;SDS011;13284;52.748;13.452;2024-02-21T06:40:23;13.63;;;6.17;;
25331;SDS011;13284;52.748;13.452;2024-02-21T06:42:49;8.80;;;6.33;;
25331;SDS011;13284;52.748;13.452;2024-02-21T06:45:15;10.73;;;6.50;;
25331;SDS011;13284;52.748;13.452;2024-02-21T06:47:41;19.90;;;7.53;;
25331;SDS011;13284;52.748;13.452;2024-02-21T06:50:07;14.80;;;7.73;;
25331;SDS011;13284;52.748;13.452;2024-02-21T06:52:33;13.47;;;6.80;;
25331;SDS011;13284;52.748;13.452;2024-02-21T06:54:59;13.33;;;6.63;;
25331;SDS011;13284;52.748;13.452;2024-02-21T06:57:25;19.60;;;6.83;;
25331;SDS011;13284;52.748;13.452;2024-02-21T06:59:50;11.57;;;7.13;;
25331;SDS011;13284;52.748;13.452;2024-02-21T07:02:16;12.70;;;7.23;;
25331;SDS011;13284;52.748;13.452;2024-02-21T07:04:41;14.37;;;7.10;;
25331;SDS011;13284;52.748;13.452;2024-02-21T07:07:07;11.87;;;6.57;;
25331;SDS011;13284;52.748;13.452;2024-02-21T07:09:32;11.97;;;7.80;;
25331;SDS011;13284;52.748;13.452;2024-02-21T07:11:58;13.50;;;6.97;;
25331;SDS011;13284;52.748;13.452;2024-02-21T07:14:24;16.50;;;7.67;;
25331;SDS011;13284;52.748;13.452;2024-02-21T07:16:50;13.33;;;8.17;;
25331;SDS011;13284;52.748;13.452;2024-02-21T07:19:16;14.57;;;7.60;;
25331;SDS011;13284;52.748;13.452;2024-02-21T07:21:41;15.27;;;7.20;;
25331;SDS011;13284;52.748;13.452;2024-02-21T07:24:07;20.20;;;7.63;;
25331;SDS011;13284;52.748;13.452;2024-02-21T07:26:33;12.63;;;7.13;;
25331;SDS011;13284;52.748;13.452;2024-02-21T07:28:59;10.63;;;7.53;;
25331;SDS011;13284;52.748;13.452;2024-02-21T07:31:24;10.97;;;7.00;;
25331;SDS011;13284;52.748;13.452;2024-02-21T07:33:50;16.43;;;8.07;;
25331;SDS011;13284;52.748;13.452;2024-02-21T07:36:16;12.90;;;6.50;;
25331;SDS011;13284;52.748;13.452;2024-02-21T07:38:58;12.23;;;6.67;;
25331;SDS011;13284;52.748;13.452;2024-02-21T07:41:24;13.77;;;7.37;;
25331;SDS011;13284;52.748;13.452;2024-02-21T07:43:50;17.27;;;7.37;;
25331;SDS011;13284;52.748;13.452;2024-02-21T07:46:16;14.30;;;7.53;;
25331;SDS011;13284;52.748;13.452;2024-02-21T07:48:42;18.70;;;7.80;;
25331;SDS011;13284;52.748;13.452;2024-02-21T07:51:08;21.37;;;9.17;;
25331;SDS011;13284;52.748;13.452;2024-02-21T07:53:33;15.00;;;6.80;;
25331;SDS011;13284;52.748;13.452;2024-02-21T07:55:59;12.67;;;7.10;;
25331;SDS011;13284;52.748;13.452;2024-02-21T07:58:25;14.53;;;8.00;;
25331;SDS011;13284;52.748;13.452;2024-02-21T08:00:50;18.33;;;8.90;;
25331;SDS011;13284;52.748;13.452;2024-02-21T08:03:15;13.43;;;7.43;;
25331;SDS011;13284;52.748;13.452;2024-02-21T08:05:42;9.97;;;6.37;;
25331;SDS011;13284;52.748;13.452;2024-02-21T08:08:08;14.40;;;8.30;;
25331;SDS011;13284;52.748;13.452;2024-02-21T08:10:34;17.07;;;8.63;;
25331;SDS011;13284;52.748;13.452;2024-02-21T08:12:59;14.00;;;7.97;;
25331;SDS011;13284;52.748;13.452;2024-02-21T08:15:25;12.90;;;7.40;;
25331;SDS011;13284;52.748;13.452;2024-02-21T08:17:55;14.47;;;8.17;;
25331;SDS011;13284;52.748;13.452;2024-02-21T08:20:24;20.00;;;8.03;;
25331;SDS011;13284;52.748;13.452;2024-02-21T08:22:50;16.90;;;8.63;;
25331;SDS011;13284;52.748;13.452;2024-02-21T08:25:15;12.30;;;7.50;;
25331;SDS011;13284;52.748;13.452;2024-02-21T08:27:41;16.73;;;7.70;;
25331;SDS011;13284;52.748;13.452;2024-02-21T08:30:06;20.70;;;8.60;;
25331;SDS011;13284;52.748;13.452;2024-02-21T08:32:33;20.20;;;7.73;;
25331;SDS011;13284;52.748;13.452;2024-02-21T08:35:00;8.97;;;5.63;;
25331;SDS011;13284;52.748;13.452;2024-02-21T08:37:26;14.20;;;7.57;;
25331;SDS011;13284;52.748;13.452;2024-02-21T08:39:52;13.47;;;7.30;;
25331;SDS011;13284;52.748;13.452;2024-02-21T08:42:18;13.77;;;8.60;;
25331;SDS011;13284;52.748;13.452;2024-02-21T08:44:44;11.50;;;7.60;;
25331;SDS011;13284;52.748;13.452;2024-02-21T08:47:09;13.97;;;7.37;;
25331;SDS011;13284;52.748;13.452;2024-02-21T08:49:35;9.57;;;6.33;;
25331;SDS011;13284;52.748;13.452;2024-02-21T08:52:01;15.20;;;8.93;;
25331;SDS011;13284;52.748;13.452;2024-02-21T08:54:27;12.83;;;7.40;;
25331;SDS011;13284;52.748;13.452;2024-02-21T08:56:53;11.80;;;7.30;;
25331;SDS011;13284;52.748;13.452;2024-02-21T08:59:19;12.97;;;7.10;;
25331;SDS011;13284;52.748;13.452;2024-02-21T09:01:45;14.07;;;7.67;;
25331;SDS011;13284;52.748;13.452;2024-02-21T09:04:11;12.27;;;6.90;;
25331;SDS011;13284;52.748;13.452;2024-02-21T09:06:37;15.97;;;7.67;;
25331;SDS011;13284;52.748;13.452;2024-02-21T09:09:06;11.73;;;8.53;;
25331;SDS011;13284;52.748;13.452;2024-02-21T09:11:33;11.30;;;6.70;;
25331;SDS011;13284;52.748;13.452;2024-02-21T09:13:59;13.83;;;7.40;;
25331;SDS011;13284;52.748;13.452;2024-02-21T09:16:24;18.23;;;8.60;;
25331;SDS011;13284;52.748;13.452;2024-02-21T09:18:50;15.40;;;7.20;;
25331;SDS011;13284;52.748;13.452;2024-02-21T09:21:15;14.20;;;8.13;;
25331;SDS011;13284;52.748;13.452;2024-02-21T09:23:41;16.00;;;8.47;;
25331;SDS011;13284;52.748;13.452;2024-02-21T09:26:06;11.23;;;7.20;;
25331;SDS011;13284;52.748;13.452;2024-02-21T09:28:33;15.30;;;7.90;;
25331;SDS011;13284;52.748;13.452;2024-02-21T09:30:59;16.53;;;7.30;;
25331;SDS011;13284;52.748;13.452;2024-02-21T09:33:24;10.93;;;7.80;;
25331;SDS011;13284;52.748;13.452;2024-02-21T09:35:50;13.37;;;7.30;;
25331;SDS011;13284;52.748;13.452;2024-02-21T09:38:15;13.93;;;8.13;;
25331;SDS011;13284;52.748;13.452;2024-02-21T09:40:41;10.00;;;6.47;;
25331;SDS011;13284;52.748;13.452;2024-02-21T09:43:07;15.63;;;7.63;;
25331;SDS011;13284;52.748;13.452;2024-02-21T09:45:33;11.87;;;7.10;;
25331;SDS011;13284;52.748;13.452;2024-02-21T09:50:30;10.40;;;5.73;;
25331;SDS011;13284;52.748;13.452;2024-02-21T09:52:58;12.60;;;6.63;;
25331;SDS011;13284;52.748;13.452;2024-02-21T09:55:26;12.73;;;6.70;;
25331;SDS011;13284;52.748;13.452;2024-02-21T09:57:54;10.33;;;6.97;;
25331;SDS011;13284;52.748;13.452;2024-02-21T10:00:21;16.20;;;8.23;;
25331;SDS011;13284;52.748;13.452;2024-02-21T10:02:48;13.27;;;8.37;;
25331;SDS011;13284;52.748;13.452;2024-02-21T10:05:15;15.23;;;6.83;;
25331;SDS011;13284;52.748;13.452;2024-02-21T10:07:41;14.07;;;8.67;;
25331;SDS011;13284;52.748;13.452;2024-02-21T10:10:07;10.27;;;6.13;;
25331;SDS011;13284;52.748;13.452;2024-02-21T10:12:33;12.17;;;7.00;;
25331;SDS011;13284;52.748;13.452;2024-02-21T10:15:05;10.90;;;7.00;;
25331;SDS011;13284;52.748;13.452;2024-02-21T10:17:34;11.53;;;6.80;;
25331;SDS011;13284;52.748;13.452;2024-02-21T10:20:10;12.40;;;7.83;;
25331;SDS011;13284;52.748;13.452;2024-02-21T10:22:37;11.27;;;6.97;;
25331;SDS011;13284;52.748;13.452;2024-02-21T10:25:13;11.07;;;6.57;;
25331;SDS011;13284;52.748;13.452;2024-02-21T10:27:39;10.90;;;6.70;;
25331;SDS011;13284;52.748;13.452;2024-02-21T10:30:07;12.60;;;6.77;;
25331;SDS011;13284;52.748;13.452;2024-02-21T10:32:37;11.23;;;6.77;;
25331;SDS011;13284;52.748;13.452;2024-02-21T10:35:13;13.87;;;7.73;;
25331;SDS011;13284;52.748;13.452;2024-02-21T10:37:39;12.27;;;6.83;;
25331;SDS011;13284;52.748;13.452;2024-02-21T10:40:04;11.47;;;7.60;;
25331;SDS011;13284;52.748;13.452;2024-02-21T10:42:32;12.23;;;7.17;;
25331;SDS011;13284;52.748;13.452;2024-02-21T10:45:00;9.20;;;8.30;;
25331;SDS011;13284;52.748;13.452;2024-02-21T10:47:29;11.83;;;6.07;;
25331;SDS011;13284;52.748;13.452;2024-02-21T10:49:57;11.70;;;7.73;;
25331;SDS011;13284;52.748;13.452;2024-02-21T10:55:16;13.93;;;6.90;;
25331;SDS011;13284;52.748;13.452;2024-02-21T10:57:48;8.50;;;6.10;;
25331;SDS011;13284;52.748;13.452;2024-02-21T11:00:15;8.63;;;5.30;;
25331;SDS011;13284;52.748;13.452;2024-02-21T11:02:43;8.87;;;5.43;;
25331;SDS011;13284;52.748;13.452;2024-02-21T11:05:09;15.67;;;7.77;;
25331;SDS011;13284;52.748;13.452;2024-02-21T11:07:36;6.87;;;5.37;;
25331;SDS011;13284;52.748;13.452;2024-02-21T11:10:02;9.30;;;5.57;;
25331;SDS011;13284;52.748;13.452;2024-02-21T11:12:28;8.07;;;5.97;;
25331;SDS011;13284;52.748;13.452;2024-02-21T11:15:04;8.73;;;5.70;;
25331;SDS011;13284;52.748;13.452;2024-02-21T11:17:31;7.00;;;5.60;;
25331;SDS011;13284;52.748;13.452;2024-02-21T11:19:56;8.37;;;5.73;;
25331;SDS011;13284;52.748;13.452;2024-02-21T11:22:22;9.60;;;6.07;;
25331;SDS011;13284;52.748;13.452;2024-02-21T11:24:49;8.47;;;6.27;;
25331;SDS011;13284;52.748;13.452;2024-02-21T11:27:15;7.83;;;5.70;;
25331;SDS011;13284;52.748;13.452;2024-02-21T11:29:46;8.47;;;6.27;;
25331;SDS011;13284;52.748;13.452;2024-02-21T11:32:17;9.13;;;5.90;;
25331;SDS011;13284;52.748;13.452;2024-02-21T11:34:56;6.97;;;5.80;;
25331;SDS011;13284;52.748;13.452;2024-02-21T11:37:26;7.33;;;5.57;;
25331;SDS011;13284;52.748;13.452;2024-02-21T11:39:58;9.57;;;5.40;;
25331;SDS011;13284;52.748;13.452;2024-02-21T11:42:27;5.40;;;4.77;;
25331;SDS011;13284;52.748;13.452;2024-02-21T11:44:53;7.53;;;4.80;;
25331;SDS011;13284;52.748;13.452;2024-02-21T11:47:21;9.17;;;5.50;;
25331;SDS011;13284;52.748;13.452;2024-02-21T11:49:47;8.67;;;5.37;;
25331;SDS011;13284;52.748;13.452;2024-02-21T11:52:23;6.77;;;5.23;;
25331;SDS011;13284;52.748;13.452;2024-02-21T11:54:52;5.77;;;4.40;;
25331;SDS011;13284;52.748;13.452;2024-02-21T11:57:19;5.50;;;4.90;;
25331;SDS011;13284;52.748;13.452;2024-02-21T11:59:45;10.20;;;6.23;;
25331;SDS011;13284;52.748;13.452;2024-02-21T12:02:11;10.57;;;5.10;;
25331;SDS011;13284;52.748;13.452;2024-02-21T12:04:37;7.50;;;4.43;;
25331;SDS011;13284;52.748;13.452;2024-02-21T12:07:03;10.50;;;4.87;;
25331;SDS011;13284;52.748;13.452;2024-02-21T12:09:29;5.17;;;4.67;;
25331;SDS011;13284;52.748;13.452;2024-02-21T12:12:02;5.00;;;4.27;;
25331;SDS011;13284;52.748;13.452;2024-02-21T12:14:28;6.90;;;4.40;;
25331;SDS011;13284;52.748;13.452;2024-02-21T12:16:55;5.83;;;4.40;;
25331;SDS011;13284;52.748;13.452;2024-02-21T12:19:21;6.47;;;4.80;;
25331;SDS011;13284;52.748;13.452;2024-02-21T12:21:47;4.40;;;4.00;;
25331;SDS011;13284;52.748;13.452;2024-02-21T12:24:15;6.47;;;4.53;;
25331;SDS011;13284;52.748;13.452;2024-02-21T12:26:43;8.30;;;4.17;;
25331;SDS011;13284;52.748;13.452;2024-02-21T12:29:08;5.17;;;4.10;;
25331;SDS011;13284;52.748;13.452;2024-02-21T12:31:35;5.63;;;3.90;;
25331;SDS011;13284;52.748;13.452;2024-02-21T12:34:01;8.20;;;3.27;;
25331;SDS011;13284;52.748;13.452;2024-02-21T12:36:27;6.40;;;3.60;;
25331;SDS011;13284;52.748;13.452;2024-02-21T12:38:52;6.20;;;3.67;;
25331;SDS011;13284;52.748;13.452;2024-02-21T12:41:18;5.33;;;3.10;;
25331;SDS011;13284;52.748;13.452;2024-02-21T12:43:43;3.63;;;2.57;;
25331;SDS011;13284;52.748;13.452;2024-02-21T12:46:09;3.47;;;3.10;;
25331;SDS011;13284;52.748;13.452;2024-02-21T12:48:34;5.30;;;3.60;;
25331;SDS011;13284;52.748;13.452;2024-02-21T12:51:00;4.43;;;3.30;;
25331;SDS011;13284;52.748;13.452;2024-02-21T12:53:25;3.80;;;2.73;;
25331;SDS011;13284;52.748;13.452;2024-02-21T12:55:51;3.33;;;3.03;;
25331;SDS011;13284;52.748;13.452;2024-02-21T12:58:16;6.20;;;3.77;;
25331;SDS011;13284;52.748;13.452;2024-02-21T13:00:42;3.50;;;2.70;;
25331;SDS011;13284;52.748;13.452;2024-02-21T13:03:07;6.23;;;3.40;;
25331;SDS011;13284;52.748;13.452;2024-02-21T13:05:36;4.20;;;3.80;;
25331;SDS011;13284;52.748;13.452;2024-02-21T13:08:02;6.10;;;3.50;;
25331;SDS011;13284;52.748;13.452;2024-02-21T13:10:27;3.90;;;3.03;;
25331;SDS011;13284;52.748;13.452;2024-02-21T13:12:53;3.60;;;2.93;;
25331;SDS011;13284;52.748;13.452;2024-02-21T13:15:19;3.37;;;3.07;;
25331;SDS011;13284;52.748;13.452;2024-02-21T13:17:45;4.60;;;3.33;;
25331;SDS011;13284;52.748;13.452;2024-02-21T13:20:10;4.37;;;3.40;;
25331;SDS011;13284;52.748;13.452;2024-02-21T13:22:36;3.13;;;2.83;;
25331;SDS011;13284;52.748;13.452;2024-02-21T13:25:02;4.23;;;2.70;;
25331;SDS011;13284;52.748;13.452;2024-02-21T13:27:28;3.03;;;2.43;;
25331;SDS011;13284;52.748;13.452;2024-02-21T13:29:54;3.90;;;2.97;;
25331;SDS011;13284;52.748;13.452;2024-02-21T13:32:19;3.53;;;3.07;;
25331;SDS011;13284;52.748;13.452;2024-02-21T13:34:45;3.33;;;3.03;;
25331;SDS011;13284;52.748;13.452;2024-02-21T13:37:10;5.10;;;2.77;;
25331;SDS011;13284;52.748;13.452;2024-02-21T13:39:36;4.43;;;3.17;;
25331;SDS011;13284;52.748;13.452;2024-02-21T13:42:02;3.20;;;2.87;;
25331;SDS011;13284;52.748;13.452;2024-02-21T13:44:31;4.77;;;3.13;;
25331;SDS011;13284;52.748;13.452;2024-02-21T13:46:57;3.83;;;2.37;;
25331;SDS011;13284;52.748;13.452;2024-02-21T13:49:23;4.40;;;2.80;;
25331;SDS011;13284;52.748;13.452;2024-02-21T13:51:48;6.60;;;3.00;;
25331;SDS011;13284;52.748;13.452;2024-02-21T13:54:14;4.37;;;2.77;;
25331;SDS011;13284;52.748;13.452;2024-02-21T13:56:42;4.50;;;2.93;;
25331;SDS011;13284;52.748;13.452;2024-02-21T13:59:07;6.10;;;3.43;;
25331;SDS011;13284;52.748;13.452;2024-02-21T14:01:33;3.97;;;2.70;;
25331;SDS011;13284;52.748;13.452;2024-02-21T14:04:00;3.47;;;2.93;;
25331;SDS011;13284;52.748;13.452;2024-02-21T14:06:26;6.57;;;3.10;;
25331;SDS011;13284;52.748;13.452;2024-02-21T14:08:52;4.70;;;3.43;;
25331;SDS011;13284;52.748;13.452;2024-02-21T14:11:17;4.67;;;3.20;;
25331;SDS011;13284;52.748;13.452;2024-02-21T14:13:42;5.60;;;3.80;;
25331;SDS011;13284;52.748;13.452;2024-02-21T14:16:11;6.40;;;2.93;;
25331;SDS011;13284;52.748;13.452;2024-02-21T14:18:38;3.73;;;2.97;;
25331;SDS011;13284;52.748;13.452;2024-02-21T14:21:06;3.83;;;3.50;;
25331;SDS011;13284;52.748;13.452;2024-02-21T14:23:31;4.80;;;3.70;;
25331;SDS011;13284;52.748;13.452;2024-02-21T14:25:58;9.57;;;3.70;;